createdAt,value
2023-04-14T00:02:25.997Z,99701.89
2023-04-14T00:04:54.682Z,99700.85
2023-04-14T00:07:22.829Z,99705.35
2023-04-14T00:09:54.061Z,99707.66
2023-04-14T00:12:25.010Z,99709.33
2023-04-14T00:14:53.222Z,99712.36
2023-04-14T00:17:21.335Z,99715.09
2023-04-14T00:19:50.090Z,99715.84
2023-04-14T00:22:18.665Z,99716.77
2023-04-14T00:24:47.344Z,99718.48
2023-04-14T00:27:15.815Z,99716.52
2023-04-14T00:29:44.209Z,99719.17
2023-04-14T00:32:13.239Z,99717.06
2023-04-14T00:34:41.900Z,99719.36
2023-04-14T00:37:10.547Z,99718.61
2023-04-14T00:39:38.811Z,99714.23
2023-04-14T00:42:06.985Z,99720.75
2023-04-14T00:44:36.270Z,99717.02
2023-04-14T00:47:04.450Z,99717.99
2023-04-14T00:49:32.955Z,99715.39
2023-04-14T00:52:01.690Z,99717.80
2023-04-14T00:54:31.559Z,99718.13
2023-04-14T00:57:01.102Z,99718.23
2023-04-14T00:59:29.950Z,99716.10
2023-04-14T01:01:59.485Z,99715.70
2023-04-14T01:04:40.502Z,99717.60
2023-04-14T01:07:19.706Z,99714.41
2023-04-14T01:09:48.099Z,99714.43
2023-04-14T01:12:31.012Z,99715.77
2023-04-14T01:15:16.028Z,99716.14
2023-04-14T01:17:52.098Z,99716.88
2023-04-14T01:20:43.523Z,99719.51
2023-04-14T01:23:20.574Z,99723.18
2023-04-14T01:26:07.925Z,99722.92
2023-04-14T01:29:04.185Z,99722.64
2023-04-14T01:31:36.185Z,99721.20
2023-04-14T01:34:31.868Z,99716.52
2023-04-14T01:37:32.753Z,99720.39
2023-04-14T01:40:11.663Z,99723.13
2023-04-14T01:42:43.392Z,99725.13
2023-04-14T01:45:16.449Z,99728.89
2023-04-14T01:47:45.487Z,99725.25
2023-04-14T01:50:13.590Z,99725.59
2023-04-14T02:06:32.311Z,99721.23
2023-04-14T02:09:02.416Z,99724.31
2023-04-14T02:11:31.733Z,99726.48
2023-04-14T02:14:00.971Z,99729.13
2023-04-14T02:16:30.882Z,99735.44
2023-04-14T02:18:59.130Z,99734.71
2023-04-14T02:21:28.706Z,99733.50
2023-04-14T02:23:57.978Z,99737.45
2023-04-14T02:26:27.964Z,99741.46
2023-04-14T02:29:07.526Z,99745.63
2023-04-14T02:31:36.860Z,99748.52
2023-04-14T02:34:06.050Z,99753.31
2023-04-14T02:36:46.436Z,99755.19
2023-04-14T02:39:21.231Z,99759.11
2023-04-14T02:42:06.193Z,99756.13
2023-04-14T02:44:36.735Z,99758.17
2023-04-14T02:47:07.854Z,99756.35
2023-04-14T02:49:42.996Z,99757.67
2023-04-14T02:52:12.894Z,99758.85
2023-04-14T02:54:42.361Z,99758.89
2023-04-14T02:57:10.981Z,99759.83
2023-04-14T02:59:42.551Z,99766.24
2023-04-14T03:02:13.023Z,99763.23
2023-04-14T03:04:45.591Z,99765.55
2023-04-14T03:07:19.790Z,99770.30
2023-04-14T03:09:50.648Z,99772.58
2023-04-14T03:12:20.533Z,99777.13
2023-04-14T03:14:49.509Z,99776.85
2023-04-14T03:17:21.249Z,99780.02
2023-04-14T03:19:50.715Z,99779.46
2023-04-14T03:22:20.808Z,99774.60
2023-04-14T03:24:50.944Z,99779.05
2023-04-14T03:27:26.356Z,99780.43
2023-04-14T03:29:56.804Z,99778.43
2023-04-14T03:32:36.018Z,99785.23
2023-04-14T03:35:07.270Z,99781.93
2023-04-14T03:37:38.182Z,99779.91
2023-04-14T03:40:10.550Z,99790.61
2023-04-14T03:42:39.976Z,99795.31
2023-04-14T03:45:08.822Z,99804.41
2023-04-14T03:47:39.000Z,99809.64
2023-04-14T03:50:09.479Z,99810.64
2023-04-14T03:52:38.306Z,99814.05
2023-04-14T03:55:06.894Z,99813.55
2023-04-14T03:57:38.646Z,99814.61
2023-04-14T04:00:09.426Z,99817.09
2023-04-14T04:03:06.392Z,99816.13
2023-04-14T04:05:35.466Z,99823.58
2023-04-14T04:08:03.894Z,99822.28
2023-04-14T04:10:34.307Z,99827.71
2023-04-14T04:13:03.015Z,99828.29
2023-04-14T04:15:36.820Z,99831.82
2023-04-14T04:18:07.335Z,99832.16
2023-04-14T04:20:37.642Z,99836.85
2023-04-14T04:23:07.382Z,99842.06
2023-04-14T04:25:37.102Z,99840.98
2023-04-14T04:28:14.305Z,99841.33
2023-04-14T04:30:45.595Z,99841.79
2023-04-14T04:33:15.780Z,99841.31
2023-04-14T04:35:44.668Z,99844.23
2023-04-14T04:38:13.508Z,99848.95
2023-04-14T04:40:43.986Z,99853.48
2023-04-14T04:43:23.738Z,99852.13
2023-04-14T04:45:58.625Z,99852.08
2023-04-14T04:48:27.397Z,99851.30
2023-04-14T04:50:55.822Z,99858.70
2023-04-14T04:53:23.947Z,99857.66
2023-04-14T04:55:54.468Z,99861.61
2023-04-14T04:58:22.990Z,99860.41
2023-04-14T05:00:51.100Z,99862.45
2023-04-14T05:03:20.064Z,99862.89
2023-04-14T05:05:48.594Z,99863.69
2023-04-14T05:08:17.035Z,99860.41
2023-04-14T05:10:45.382Z,99859.98
2023-04-14T05:13:14.050Z,99858.21
2023-04-14T05:15:43.051Z,99862.63
2023-04-14T05:18:14.561Z,99863.48
2023-04-14T05:20:43.681Z,99864.68
2023-04-14T05:23:13.935Z,99871.49
2023-04-14T05:25:47.545Z,99870.46
2023-04-14T05:28:16.528Z,99872.52
2023-04-14T05:30:45.604Z,99875.79
2023-04-14T05:33:16.323Z,99879.98
2023-04-14T05:35:47.613Z,99885.49
2023-04-14T05:38:16.481Z,99885.56
2023-04-14T05:40:52.979Z,99887.51
2023-04-14T05:43:23.047Z,99887.38
2023-04-14T05:45:52.175Z,99890.98
2023-04-14T05:48:25.158Z,99896.63
2023-04-14T05:50:53.945Z,99897.64
2023-04-14T05:53:22.269Z,99899.25
2023-04-14T05:55:54.175Z,99900.04
2023-04-14T05:58:26.851Z,99899.38
2023-04-14T06:00:55.932Z,99899.63
2023-04-14T06:03:32.535Z,99905.83
2023-04-14T06:06:01.631Z,99908.13
2023-04-14T06:08:30.627Z,99911.21
2023-04-14T06:10:59.704Z,99912.34
2023-04-14T06:13:32.522Z,99913.34
2023-04-14T06:16:04.186Z,99921.02
2023-04-14T06:18:36.019Z,99927.20
2023-04-14T06:21:05.520Z,99931.39
2023-04-14T06:23:34.081Z,99933.55
2023-04-14T06:26:02.357Z,99931.04
2023-04-14T06:28:34.067Z,99933.96
2023-04-14T06:31:02.570Z,99932.45
2023-04-14T06:33:31.855Z,99935.00
2023-04-14T06:36:02.094Z,99939.46
2023-04-14T06:38:31.818Z,99945.35
2023-04-14T06:41:00.440Z,99943.14
2023-04-14T06:43:29.685Z,99939.92
2023-04-14T06:45:58.587Z,99943.95
2023-04-14T06:48:28.268Z,99945.40
2023-04-14T06:50:57.452Z,99949.74
2023-04-14T06:53:26.895Z,99953.95
2023-04-14T06:56:01.822Z,99956.95
2023-04-14T06:58:31.417Z,99954.52
2023-04-14T07:01:02.412Z,99961.92
2023-04-14T07:03:31.631Z,99968.72
2023-04-14T07:06:06.664Z,99969.41
2023-04-14T07:08:39.412Z,99970.70
2023-04-14T07:11:11.568Z,99973.66
2023-04-14T07:13:41.652Z,99977.70
2023-04-14T07:16:10.851Z,99986.54
2023-04-14T07:18:46.785Z,99984.58
2023-04-14T07:21:17.920Z,99989.85
2023-04-14T07:23:50.601Z,99993.34
2023-04-14T07:26:19.173Z,99996.84
2023-04-14T07:28:48.192Z,99993.16
2023-04-14T07:31:22.862Z,99994.54
2023-04-14T07:33:53.774Z,99993.48
2023-04-14T07:36:22.689Z,99996.86
2023-04-14T07:38:53.990Z,99996.75
2023-04-14T07:41:24.386Z,99997.26
2023-04-14T07:43:56.343Z,99998.37
2023-04-14T07:46:25.245Z,99997.30
2023-04-14T07:48:54.016Z,99996.20
2023-04-14T07:51:23.559Z,99996.52
2023-04-14T07:53:53.323Z,99999.73
2023-04-14T07:56:22.754Z,100000.95
2023-04-14T07:58:51.681Z,100002.21
2023-04-14T08:01:20.897Z,100004.05
2023-04-14T08:03:51.643Z,100006.42
2023-04-14T08:06:21.416Z,100010.91
2023-04-14T08:08:54.406Z,100012.44
2023-04-14T08:11:23.864Z,100016.16
2023-04-14T08:13:53.807Z,100016.08
2023-04-14T08:16:27.575Z,100018.63
2023-04-14T08:18:58.106Z,100020.19
2023-04-14T08:21:28.903Z,100025.45
2023-04-14T08:24:01.943Z,100024.77
2023-04-14T08:26:32.218Z,100023.77
2023-04-14T08:29:03.850Z,100024.23
2023-04-14T08:31:36.824Z,100025.51
2023-04-14T08:34:07.247Z,100022.54
2023-04-14T08:36:36.616Z,100024.16
2023-04-14T08:39:05.283Z,100030.58
2023-04-14T08:41:36.238Z,100032.44
2023-04-14T08:44:05.179Z,100035.80
2023-04-14T08:46:36.329Z,100033.25
2023-04-14T08:49:06.552Z,100034.13
2023-04-14T08:51:35.640Z,100035.83
2023-04-14T08:54:12.150Z,100037.64
2023-04-14T08:56:41.513Z,100040.73
2023-04-14T08:59:10.787Z,100040.60
2023-04-14T09:01:41.979Z,100033.34
2023-04-14T09:04:15.673Z,100038.61
2023-04-14T09:06:45.030Z,100037.41
2023-04-14T09:09:14.594Z,100036.60
2023-04-14T09:11:42.900Z,100041.05
2023-04-14T09:14:11.779Z,100041.87
2023-04-14T09:16:45.017Z,100046.02
2023-04-14T09:19:23.119Z,100048.82
2023-04-14T09:21:55.425Z,100050.00
2023-04-14T09:24:32.444Z,100050.24
2023-04-14T09:27:05.719Z,100050.91
2023-04-14T09:29:34.576Z,100057.26
2023-04-14T09:32:12.787Z,100063.35
2023-04-14T09:34:56.484Z,100067.48
2023-04-14T09:40:09.878Z,100072.73
2023-04-14T09:42:42.869Z,100078.83
2023-04-14T09:45:13.429Z,100077.38
2023-04-14T09:47:59.466Z,100079.30
2023-04-14T09:51:19.475Z,100082.63
2023-04-14T09:53:48.673Z,100086.95
2023-04-14T09:56:18.968Z,100088.29
2023-04-14T09:59:02.823Z,100094.23
2023-04-14T10:01:34.570Z,100101.56
2023-04-14T10:04:06.217Z,100098.96
2023-04-14T10:06:38.102Z,100102.15
2023-04-14T10:09:06.994Z,100102.25
2023-04-14T10:11:37.082Z,100107.02
2023-04-14T10:14:07.022Z,100108.33
2023-04-14T10:16:36.496Z,100111.59
2023-04-14T10:19:05.525Z,100110.83
2023-04-14T10:21:37.946Z,100111.75
2023-04-14T10:24:06.431Z,100113.87
2023-04-14T10:26:36.561Z,100117.83
2023-04-14T10:29:07.038Z,100121.40
2023-04-14T10:31:39.974Z,100125.77
2023-04-14T10:34:12.180Z,100128.16
2023-04-14T10:36:41.693Z,100130.02
2023-04-14T10:39:11.555Z,100136.16
2023-04-14T10:41:50.806Z,100136.77
2023-04-14T10:44:29.531Z,100138.95
2023-04-14T10:47:02.684Z,100142.14
2023-04-14T10:49:33.888Z,100141.77
2023-04-14T10:52:06.791Z,100144.20
2023-04-14T10:55:01.246Z,100151.11
2023-04-14T10:57:30.376Z,100150.52
2023-04-14T11:00:04.079Z,100159.23
2023-04-14T11:02:34.839Z,100163.27
2023-04-14T11:05:14.375Z,100162.66
2023-04-14T11:07:48.515Z,100170.88
2023-04-14T11:10:18.047Z,100172.58
2023-04-14T11:12:48.060Z,100175.32
2023-04-14T11:15:17.705Z,100181.25
2023-04-14T11:17:46.132Z,100177.09
2023-04-14T11:20:21.748Z,100180.21
2023-04-14T11:22:54.330Z,100183.61
2023-04-14T11:25:24.814Z,100187.01
2023-04-14T11:27:53.918Z,100192.83
2023-04-14T11:30:23.415Z,100197.50
2023-04-14T11:32:54.053Z,100195.77
2023-04-14T11:35:24.617Z,100196.39
2023-04-14T11:37:56.735Z,100199.16
2023-04-14T11:40:26.930Z,100204.09
2023-04-14T11:42:57.218Z,100209.41
2023-04-14T11:45:30.059Z,100211.65
2023-04-14T11:48:02.070Z,100211.86
2023-04-14T11:50:32.974Z,100212.86
2023-04-14T11:53:02.967Z,100213.84
2023-04-14T11:55:32.299Z,100214.84
2023-04-14T11:58:00.608Z,100213.38
2023-04-14T12:00:29.037Z,100212.70
2023-04-14T12:02:58.884Z,100216.07
2023-04-14T12:05:31.785Z,100217.09
2023-04-14T12:08:09.043Z,100218.48
2023-04-14T12:10:43.646Z,100215.89
2023-04-14T12:13:12.998Z,100220.30
2023-04-14T12:15:41.873Z,100221.42
2023-04-14T12:18:15.388Z,100222.19
2023-04-14T12:20:53.785Z,100224.54
2023-04-14T12:23:22.179Z,100228.95
2023-04-14T12:25:54.903Z,100230.61
2023-04-14T12:28:28.177Z,100235.32
2023-04-14T12:30:59.805Z,100236.59
2023-04-14T12:33:28.891Z,100235.55
2023-04-14T12:36:05.029Z,100243.34
2023-04-14T12:38:34.443Z,100253.30
2023-04-14T12:52:51.465Z,100262.31
2023-04-14T12:55:25.892Z,100268.41
2023-04-14T12:57:55.851Z,100268.06
2023-04-14T13:00:29.047Z,100271.25
2023-04-14T13:02:59.172Z,100269.65
2023-04-14T13:05:31.455Z,100274.02
2023-04-14T13:08:00.063Z,100276.02
2023-04-14T13:10:28.626Z,100278.65
2023-04-14T13:12:56.992Z,100275.58
2023-04-14T13:16:13.138Z,100277.73
2023-04-14T13:18:17.625Z,100282.39
2023-04-14T13:20:54.679Z,100285.92
2023-04-14T13:23:24.276Z,100288.42
2023-04-14T13:25:52.485Z,100289.90
2023-04-14T13:28:21.011Z,100286.99
2023-04-14T13:30:54.744Z,100293.96
2023-04-14T13:33:29.925Z,100291.60
2023-04-14T13:36:04.208Z,100294.13
2023-04-14T13:38:33.593Z,100295.94
2023-04-14T13:41:02.015Z,100299.61
2023-04-14T13:43:44.029Z,100304.07
2023-04-14T13:46:13.019Z,100308.33
2023-04-14T13:48:44.135Z,100313.95
2023-04-14T13:51:12.863Z,100323.89
2023-04-14T13:53:42.227Z,100328.23
2023-04-14T13:56:12.452Z,100332.40
2023-04-14T13:58:41.905Z,100333.29
2023-04-14T14:01:15.506Z,100336.17
2023-04-14T14:03:52.872Z,100345.27
2023-04-14T14:06:22.519Z,100349.46
2023-04-14T14:09:05.257Z,100355.36
2023-04-14T14:13:01.200Z,100358.80
2023-04-14T14:15:30.488Z,100361.48
2023-04-14T14:18:10.522Z,100367.20
2023-04-14T14:20:40.984Z,100372.67
2023-04-14T14:23:12.185Z,100380.30
2023-04-14T14:25:44.769Z,100383.70
2023-04-14T14:28:15.006Z,100382.45
2023-04-14T14:30:43.846Z,100385.92
2023-04-14T14:33:15.881Z,100385.93
2023-04-14T14:35:45.148Z,100388.98
2023-04-14T14:38:13.380Z,100393.39
2023-04-14T14:40:43.121Z,100394.85
2023-04-14T14:43:11.785Z,100397.20
2023-04-14T14:45:40.422Z,100403.34
2023-04-14T14:48:11.796Z,100409.27
2023-04-14T14:50:40.509Z,100412.55
2023-04-14T14:53:09.889Z,100412.70
2023-04-14T14:55:38.418Z,100415.28
2023-04-14T14:58:08.596Z,100415.30
2023-04-14T15:00:42.260Z,100418.38
2023-04-14T15:03:12.429Z,100424.15
2023-04-14T15:05:41.820Z,100422.89
2023-04-14T15:08:10.838Z,100423.77
2023-04-14T15:10:45.541Z,100429.27
2023-04-14T15:13:15.761Z,100432.54
2023-04-14T15:15:44.555Z,100432.87
2023-04-14T15:18:14.171Z,100437.96
2023-04-14T15:20:43.056Z,100442.99
2023-04-14T15:23:12.277Z,100448.94
2023-04-14T15:25:41.339Z,100448.77
2023-04-14T15:28:12.480Z,100451.10
2023-04-14T15:30:41.279Z,100453.08
2023-04-14T15:33:11.653Z,100458.12
2023-04-14T15:35:42.425Z,100459.94
2023-04-14T15:38:11.440Z,100467.67
2023-04-14T15:40:40.596Z,100469.95
2023-04-14T15:43:09.652Z,100469.01
2023-04-14T15:45:38.783Z,100470.30
2023-04-14T15:48:07.457Z,100474.28
2023-04-14T15:50:44.920Z,100482.89
2023-04-14T15:53:14.530Z,100485.81
2023-04-14T15:55:44.444Z,100490.41
2023-04-14T15:58:12.948Z,100492.79
2023-04-14T16:00:41.821Z,100502.28
2023-04-14T16:03:12.176Z,100501.36
2023-04-14T16:05:41.962Z,100505.12
2023-04-14T16:08:11.040Z,100507.32
2023-04-14T16:10:40.408Z,100514.80
2023-04-14T16:13:19.565Z,100518.16
2023-04-14T16:15:49.174Z,100522.08
2023-04-14T16:18:18.090Z,100530.85
2023-04-14T16:20:50.816Z,100535.66
2023-04-14T16:26:08.680Z,100543.27
2023-04-14T16:28:37.674Z,100547.98
2023-04-14T16:31:08.708Z,100552.14
2023-04-14T16:33:39.957Z,100553.69
2023-04-14T16:36:08.562Z,100557.45
2023-04-14T16:38:36.940Z,100562.95
2023-04-14T16:41:05.968Z,100567.52
2023-04-14T16:43:38.242Z,100571.09
2023-04-14T16:46:11.021Z,100579.98
2023-04-14T16:48:43.411Z,100582.21
2023-04-14T16:51:16.073Z,100586.77
2023-04-14T16:53:50.795Z,100591.37
2023-04-14T16:56:20.653Z,100593.48
2023-04-14T16:58:51.277Z,100600.13
2023-04-14T17:04:18.257Z,100603.98
2023-04-14T17:06:49.147Z,100603.89
2023-04-14T17:09:18.187Z,100605.14
2023-04-14T17:11:47.250Z,100609.16
2023-04-14T17:14:19.496Z,100610.97
2023-04-14T17:16:49.376Z,100616.36
2023-04-14T17:19:18.419Z,100619.00
2023-04-14T17:21:47.153Z,100621.34
2023-04-14T17:24:15.776Z,100623.63
2023-04-14T17:26:44.841Z,100625.27
2023-04-14T17:29:14.589Z,100626.79
2023-04-14T17:31:45.011Z,100630.42
2023-04-14T17:34:22.953Z,100630.86
2023-04-14T17:36:51.723Z,100634.91
2023-04-14T17:39:27.224Z,100637.34
2023-04-14T17:41:58.477Z,100642.48
2023-04-14T17:44:38.148Z,100645.11
2023-04-14T17:47:16.050Z,100651.95
2023-04-14T17:52:38.784Z,100666.67
2023-04-14T17:55:10.840Z,100667.45
2023-04-14T17:58:00.985Z,100668.42
2023-04-14T18:00:31.631Z,100669.34
2023-04-14T18:03:04.608Z,100673.13
2023-04-14T18:05:33.169Z,100669.71
2023-04-14T18:08:01.890Z,100674.77
2023-04-14T18:10:33.304Z,100678.34
2023-04-14T18:13:02.181Z,100675.30
2023-04-14T18:15:30.561Z,100672.70
2023-04-14T18:18:09.233Z,100674.73
2023-04-14T18:20:45.467Z,100675.02
2023-04-14T18:23:18.348Z,100675.55
2023-04-14T18:28:34.925Z,100685.70
2023-04-14T18:31:05.048Z,100686.65
2023-04-14T18:33:33.834Z,100687.68
2023-04-14T18:36:09.127Z,100691.95
2023-04-14T18:38:51.163Z,100690.96
2023-04-14T18:41:20.832Z,100691.65
2023-04-14T18:43:50.698Z,100693.40
2023-04-14T18:46:22.535Z,100700.03
2023-04-14T18:48:57.534Z,100703.77
2023-04-14T18:51:27.763Z,100704.36
2023-04-14T18:53:56.691Z,100705.40
2023-04-14T18:56:26.754Z,100703.51
2023-04-14T18:58:56.687Z,100705.67
2023-04-14T19:01:25.699Z,100705.95
2023-04-14T19:04:01.073Z,100710.02
2023-04-14T19:06:31.350Z,100714.32
2023-04-14T19:09:02.316Z,100715.48
2023-04-14T19:11:36.020Z,100718.71
2023-04-14T19:14:05.832Z,100716.77
2023-04-14T19:16:39.094Z,100721.07
2023-04-14T19:19:09.985Z,100727.21
2023-04-14T19:21:49.203Z,100721.52
2023-04-14T19:24:18.816Z,100722.41
2023-04-14T19:26:49.420Z,100721.37
2023-04-14T19:29:22.426Z,100725.63
2023-04-14T19:31:51.113Z,100717.58
2023-04-14T19:34:19.692Z,100721.48
2023-04-14T19:36:49.750Z,100729.50
2023-04-14T19:39:21.444Z,100727.58
2023-04-14T19:41:57.480Z,100728.64
2023-04-14T20:04:08.096Z,100747.42
2023-04-14T20:06:45.594Z,100751.70
2023-04-14T20:09:37.904Z,100754.04
2023-04-14T20:12:08.509Z,100758.66
2023-04-14T20:14:44.512Z,100764.36
2023-04-14T20:17:15.352Z,100765.86
2023-04-14T20:19:54.255Z,100764.64
2023-04-14T20:22:23.701Z,100765.00
2023-04-14T20:25:03.316Z,100770.05
2023-04-14T20:27:33.919Z,100778.67
2023-04-14T20:30:03.267Z,100779.39
2023-04-14T20:32:44.534Z,100782.10
2023-04-14T20:35:18.852Z,100781.85
2023-04-14T20:37:47.962Z,100795.06
2023-04-14T20:40:19.590Z,100798.83
2023-04-14T20:42:54.318Z,100806.45
2023-04-14T20:47:38.244Z,100812.93
2023-04-14T20:50:10.488Z,100816.06
2023-04-14T20:52:46.290Z,100821.00
2023-04-14T20:58:58.931Z,100831.59
2023-04-14T21:01:38.701Z,100839.74
2023-04-14T21:04:13.863Z,100843.77
2023-04-14T21:06:58.486Z,100841.20
2023-04-14T21:09:47.489Z,100842.16
2023-04-14T21:12:19.620Z,100846.75
2023-04-14T21:15:30.620Z,100851.60
2023-04-14T21:18:04.799Z,100851.45
2023-04-14T21:20:36.615Z,100850.05
2023-04-14T21:29:06.316Z,100852.55
2023-04-14T21:31:37.819Z,100854.34
2023-04-14T21:34:12.714Z,100854.89
2023-04-14T21:36:44.037Z,100856.21
2023-04-14T21:39:39.546Z,100850.33
2023-04-14T21:45:01.240Z,100857.27
2023-04-14T21:47:33.396Z,100865.11
2023-04-14T21:50:05.004Z,100865.83
2023-04-14T21:52:32.975Z,100868.94
2023-04-14T21:55:06.309Z,100870.09
2023-04-14T21:57:44.408Z,100872.33
2023-04-14T22:00:18.699Z,100875.09
2023-04-14T22:02:48.802Z,100876.67
2023-04-14T22:05:16.960Z,100879.56
2023-04-14T22:07:45.346Z,100882.25
2023-04-14T22:10:15.134Z,100884.78
2023-04-14T22:12:43.735Z,100881.59
2023-04-14T22:15:12.102Z,100882.27
2023-04-14T22:17:44.654Z,100881.91
2023-04-14T22:20:12.532Z,100884.58
2023-04-14T22:22:40.461Z,100886.57
2023-04-14T22:25:13.843Z,100888.95
2023-04-14T22:27:40.943Z,100888.23
2023-04-14T22:30:09.665Z,100892.43
2023-04-14T22:32:37.169Z,100895.84
2023-04-14T22:35:05.506Z,100896.30
2023-04-14T22:37:32.844Z,100901.77
2023-04-14T22:40:02.956Z,100909.09
2023-04-14T22:42:30.597Z,100912.31
2023-04-14T22:44:58.282Z,100914.29
2023-04-14T22:47:29.747Z,100915.14
2023-04-14T22:49:56.665Z,100914.20
2023-04-14T22:52:26.997Z,100920.35
2023-04-14T22:54:56.048Z,100915.97
2023-04-14T22:57:23.642Z,100917.32
2023-04-14T22:59:52.622Z,100915.52
2023-04-14T23:02:21.301Z,100916.46
2023-04-14T23:04:48.783Z,100917.45
2023-04-14T23:07:16.407Z,100922.29
2023-04-14T23:09:58.070Z,100923.40
2023-04-14T23:12:25.599Z,100924.45
2023-04-14T23:14:53.968Z,100922.19
2023-04-14T23:17:28.791Z,100921.63
2023-04-14T23:19:57.035Z,100923.80
2023-04-14T23:22:24.249Z,100930.27
2023-04-14T23:24:52.376Z,100932.56
2023-04-14T23:27:19.958Z,100934.88
2023-04-14T23:29:47.428Z,100939.23
2023-04-14T23:32:14.257Z,100940.05
2023-04-14T23:34:42.893Z,100940.45
2023-04-14T23:37:09.939Z,100940.30
2023-04-14T23:39:36.744Z,100940.69
2023-04-14T23:42:08.631Z,100947.52
2023-04-14T23:44:36.907Z,100952.58
2023-04-14T23:47:04.750Z,100959.60
2023-04-14T23:49:35.941Z,100957.57
2023-04-14T23:52:04.094Z,100963.85
2023-04-14T23:54:31.182Z,100968.19
2023-04-14T23:57:01.465Z,100969.27
2023-04-14T23:59:28.562Z,100971.26
